sensor_id;sensor_type;location;lat;lon;timestamp;temperature;humidity
4374;DHT22;2201;51.100;6.814;2022-10-16T00:01:08;14.10;98.20
4374;DHT22;2201;51.100;6.814;2022-10-16T00:03:38;14.10;98.20
4374;DHT22;2201;51.100;6.814;2022-10-16T00:06:06;14.10;98.20
4374;DHT22;2201;51.100;6.814;2022-10-16T00:08:34;14.10;98.20
4374;DHT22;2201;51.100;6.814;2022-10-16T00:11:03;14.10;98.20
4374;DHT22;2201;51.100;6.814;2022-10-16T00:13:32;14.10;98.20
4374;DHT22;2201;51.100;6.814;2022-10-16T00:16:00;14.10;98.20
4374;DHT22;2201;51.100;6.814;2022-10-16T00:18:28;14.10;98.20
4374;DHT22;2201;51.100;6.814;2022-10-16T00:21:02;14.10;98.20
4374;DHT22;2201;51.100;6.814;2022-10-16T00:23:29;14.10;98.20
4374;DHT22;2201;51.100;6.814;2022-10-16T00:25:57;14.10;98.20
4374;DHT22;2201;51.100;6.814;2022-10-16T00:28:25;14.10;98.20
4374;DHT22;2201;51.100;6.814;2022-10-16T00:30:53;14.10;98.20
4374;DHT22;2201;51.100;6.814;2022-10-16T00:33:20;14.10;98.20
4374;DHT22;2201;51.100;6.814;2022-10-16T00:35:48;14.00;98.20
4374;DHT22;2201;51.100;6.814;2022-10-16T00:38:17;14.00;98.20
4374;DHT22;2201;51.100;6.814;2022-10-16T00:40:44;14.00;98.20
4374;DHT22;2201;51.100;6.814;2022-10-16T00:43:33;14.00;98.20
4374;DHT22;2201;51.100;6.814;2022-10-16T00:46:03;14.00;98.20
4374;DHT22;2201;51.100;6.814;2022-10-16T00:48:31;14.00;98.20
4374;DHT22;2201;51.100;6.814;2022-10-16T00:50:58;14.00;98.20
4374;DHT22;2201;51.100;6.814;2022-10-16T00:53:27;14.00;98.20
4374;DHT22;2201;51.100;6.814;2022-10-16T00:55:55;13.90;98.20
4374;DHT22;2201;51.100;6.814;2022-10-16T00:58:23;13.90;98.20
4374;DHT22;2201;51.100;6.814;2022-10-16T01:00:50;13.90;98.20
4374;DHT22;2201;51.100;6.814;2022-10-16T01:03:26;13.90;98.20
4374;DHT22;2201;51.100;6.814;2022-10-16T01:06:01;13.90;98.20
4374;DHT22;2201;51.100;6.814;2022-10-16T01:08:40;13.90;98.20
4374;DHT22;2201;51.100;6.814;2022-10-16T01:11:17;13.80;98.20
4374;DHT22;2201;51.100;6.814;2022-10-16T01:13:50;13.80;98.20
4374;DHT22;2201;51.100;6.814;2022-10-16T01:16:24;13.80;98.20
4374;DHT22;2201;51.100;6.814;2022-10-16T01:18:59;13.80;98.20
4374;DHT22;2201;51.100;6.814;2022-10-16T01:21:32;13.80;98.20
4374;DHT22;2201;51.100;6.814;2022-10-16T01:24:06;13.80;98.20
4374;DHT22;2201;51.100;6.814;2022-10-16T01:29:22;13.80;98.20
4374;DHT22;2201;51.100;6.814;2022-10-16T01:31:55;13.80;98.20
4374;DHT22;2201;51.100;6.814;2022-10-16T01:34:28;13.80;98.20
4374;DHT22;2201;51.100;6.814;2022-10-16T01:37:04;13.80;98.20
4374;DHT22;2201;51.100;6.814;2022-10-16T01:39:35;13.80;98.20
4374;DHT22;2201;51.100;6.814;2022-10-16T01:42:07;13.80;98.20
4374;DHT22;2201;51.100;6.814;2022-10-16T01:44:39;13.90;98.20
4374;DHT22;2201;51.100;6.814;2022-10-16T01:47:07;13.90;98.20
4374;DHT22;2201;51.100;6.814;2022-10-16T01:49:38;13.90;98.20
4374;DHT22;2201;51.100;6.814;2022-10-16T01:52:09;13.90;98.20
4374;DHT22;2201;51.100;6.814;2022-10-16T01:54:39;13.90;98.20
4374;DHT22;2201;51.100;6.814;2022-10-16T01:57:08;13.90;98.20
4374;DHT22;2201;51.100;6.814;2022-10-16T01:59:39;13.90;98.20
4374;DHT22;2201;51.100;6.814;2022-10-16T02:02:09;13.90;98.20
4374;DHT22;2201;51.100;6.814;2022-10-16T02:04:40;13.90;98.20
4374;DHT22;2201;51.100;6.814;2022-10-16T02:07:10;13.90;98.20
4374;DHT22;2201;51.100;6.814;2022-10-16T02:09:38;13.90;98.20
4374;DHT22;2201;51.100;6.814;2022-10-16T02:12:10;13.90;98.20
4374;DHT22;2201;51.100;6.814;2022-10-16T02:14:41;13.90;98.20
4374;DHT22;2201;51.100;6.814;2022-10-16T02:17:12;13.90;98.20
4374;DHT22;2201;51.100;6.814;2022-10-16T02:19:42;13.90;98.20
4374;DHT22;2201;51.100;6.814;2022-10-16T02:22:16;13.90;98.20
4374;DHT22;2201;51.100;6.814;2022-10-16T02:24:51;13.90;98.20
4374;DHT22;2201;51.100;6.814;2022-10-16T02:27:22;14.00;98.20
4374;DHT22;2201;51.100;6.814;2022-10-16T02:29:56;14.00;98.20
4374;DHT22;2201;51.100;6.814;2022-10-16T02:32:30;14.00;98.20
4374;DHT22;2201;51.100;6.814;2022-10-16T02:34:59;14.00;98.20
4374;DHT22;2201;51.100;6.814;2022-10-16T02:37:27;14.00;98.20
4374;DHT22;2201;51.100;6.814;2022-10-16T02:39:56;14.00;98.20
4374;DHT22;2201;51.100;6.814;2022-10-16T02:42:28;14.00;98.20
4374;DHT22;2201;51.100;6.814;2022-10-16T02:44:57;14.00;98.20
4374;DHT22;2201;51.100;6.814;2022-10-16T02:47:25;14.00;98.20
4374;DHT22;2201;51.100;6.814;2022-10-16T02:49:53;14.00;98.20
4374;DHT22;2201;51.100;6.814;2022-10-16T02:52:20;14.10;98.20
4374;DHT22;2201;51.100;6.814;2022-10-16T02:54:47;14.10;98.20
4374;DHT22;2201;51.100;6.814;2022-10-16T02:57:14;14.10;98.20
4374;DHT22;2201;51.100;6.814;2022-10-16T02:59:41;14.10;98.20
4374;DHT22;2201;51.100;6.814;2022-10-16T03:02:10;14.10;98.20
4374;DHT22;2201;51.100;6.814;2022-10-16T03:04:38;14.10;98.20
4374;DHT22;2201;51.100;6.814;2022-10-16T03:07:05;14.10;98.20
4374;DHT22;2201;51.100;6.814;2022-10-16T03:09:33;14.10;98.20
4374;DHT22;2201;51.100;6.814;2022-10-16T03:12:00;14.10;98.20
4374;DHT22;2201;51.100;6.814;2022-10-16T03:14:27;14.00;98.20
4374;DHT22;2201;51.100;6.814;2022-10-16T03:16:55;14.00;98.20
4374;DHT22;2201;51.100;6.814;2022-10-16T03:19:23;14.00;98.20
4374;DHT22;2201;51.100;6.814;2022-10-16T03:21:50;14.00;98.20
4374;DHT22;2201;51.100;6.814;2022-10-16T03:24:18;14.00;98.20
4374;DHT22;2201;51.100;6.814;2022-10-16T03:26:46;13.90;98.20
4374;DHT22;2201;51.100;6.814;2022-10-16T03:29:14;13.90;98.20
4374;DHT22;2201;51.100;6.814;2022-10-16T03:31:41;13.90;98.20
4374;DHT22;2201;51.100;6.814;2022-10-16T03:34:09;13.90;98.20
4374;DHT22;2201;51.100;6.814;2022-10-16T03:36:38;13.90;98.20
4374;DHT22;2201;51.100;6.814;2022-10-16T03:39:05;13.80;98.20
4374;DHT22;2201;51.100;6.814;2022-10-16T03:41:36;13.80;98.20
4374;DHT22;2201;51.100;6.814;2022-10-16T03:44:06;13.80;98.20
4374;DHT22;2201;51.100;6.814;2022-10-16T03:49:19;13.80;98.20
4374;DHT22;2201;51.100;6.814;2022-10-16T03:51:48;13.80;98.20
4374;DHT22;2201;51.100;6.814;2022-10-16T03:54:15;13.70;98.20
4374;DHT22;2201;51.100;6.814;2022-10-16T03:56:44;13.70;98.20
4374;DHT22;2201;51.100;6.814;2022-10-16T03:59:11;13.70;98.20
4374;DHT22;2201;51.100;6.814;2022-10-16T04:01:53;13.70;98.20
4374;DHT22;2201;51.100;6.814;2022-10-16T04:04:20;13.70;98.20
4374;DHT22;2201;51.100;6.814;2022-10-16T04:06:51;13.70;98.20
4374;DHT22;2201;51.100;6.814;2022-10-16T04:09:19;13.70;98.20
4374;DHT22;2201;51.100;6.814;2022-10-16T04:14:15;13.70;98.20
4374;DHT22;2201;51.100;6.814;2022-10-16T04:16:43;13.60;98.20
4374;DHT22;2201;51.100;6.814;2022-10-16T04:19:10;13.60;98.20
4374;DHT22;2201;51.100;6.814;2022-10-16T04:21:39;13.60;98.20
4374;DHT22;2201;51.100;6.814;2022-10-16T04:24:07;13.60;98.20
4374;DHT22;2201;51.100;6.814;2022-10-16T04:26:36;13.60;98.20
4374;DHT22;2201;51.100;6.814;2022-10-16T04:29:03;13.60;98.20
4374;DHT22;2201;51.100;6.814;2022-10-16T04:31:31;13.60;98.20
4374;DHT22;2201;51.100;6.814;2022-10-16T04:33:59;13.50;98.20
4374;DHT22;2201;51.100;6.814;2022-10-16T04:36:26;13.50;98.20
4374;DHT22;2201;51.100;6.814;2022-10-16T04:38:54;13.50;98.20
4374;DHT22;2201;51.100;6.814;2022-10-16T04:41:23;13.50;98.20
4374;DHT22;2201;51.100;6.814;2022-10-16T04:43:50;13.50;98.20
4374;DHT22;2201;51.100;6.814;2022-10-16T04:46:21;13.50;98.20
4374;DHT22;2201;51.100;6.814;2022-10-16T04:48:51;13.50;98.20
4374;DHT22;2201;51.100;6.814;2022-10-16T04:51:19;13.40;98.20
4374;DHT22;2201;51.100;6.814;2022-10-16T04:53:46;13.40;98.20
4374;DHT22;2201;51.100;6.814;2022-10-16T04:56:16;13.40;98.20
4374;DHT22;2201;51.100;6.814;2022-10-16T04:58:45;13.40;98.20
4374;DHT22;2201;51.100;6.814;2022-10-16T05:01:12;13.40;98.20
4374;DHT22;2201;51.100;6.814;2022-10-16T05:03:40;13.40;98.20
4374;DHT22;2201;51.100;6.814;2022-10-16T05:06:08;13.30;98.20
4374;DHT22;2201;51.100;6.814;2022-10-16T05:08:35;13.40;98.20
4374;DHT22;2201;51.100;6.814;2022-10-16T05:11:25;13.30;98.20
4374;DHT22;2201;51.100;6.814;2022-10-16T05:14:02;13.30;98.20
4374;DHT22;2201;51.100;6.814;2022-10-16T05:16:29;13.30;98.20
4374;DHT22;2201;51.100;6.814;2022-10-16T05:18:57;13.30;98.20
4374;DHT22;2201;51.100;6.814;2022-10-16T05:21:24;13.30;98.20
4374;DHT22;2201;51.100;6.814;2022-10-16T05:23:53;13.30;98.20
4374;DHT22;2201;51.100;6.814;2022-10-16T05:26:21;13.20;98.20
4374;DHT22;2201;51.100;6.814;2022-10-16T05:28:50;13.20;98.20
4374;DHT22;2201;51.100;6.814;2022-10-16T05:31:18;13.20;98.20
4374;DHT22;2201;51.100;6.814;2022-10-16T05:33:46;13.20;98.20
4374;DHT22;2201;51.100;6.814;2022-10-16T05:36:14;13.20;98.20
4374;DHT22;2201;51.100;6.814;2022-10-16T05:38:41;13.20;98.20
4374;DHT22;2201;51.100;6.814;2022-10-16T05:41:08;13.20;98.20
4374;DHT22;2201;51.100;6.814;2022-10-16T05:43:38;13.20;98.20
4374;DHT22;2201;51.100;6.814;2022-10-16T05:46:06;13.20;98.20
4374;DHT22;2201;51.100;6.814;2022-10-16T05:48:34;13.30;98.20
4374;DHT22;2201;51.100;6.814;2022-10-16T05:51:04;13.30;98.20
4374;DHT22;2201;51.100;6.814;2022-10-16T05:53:34;13.30;98.20
4374;DHT22;2201;51.100;6.814;2022-10-16T05:56:02;13.30;98.20
4374;DHT22;2201;51.100;6.814;2022-10-16T05:58:37;13.30;98.20
4374;DHT22;2201;51.100;6.814;2022-10-16T06:01:07;13.30;98.20
4374;DHT22;2201;51.100;6.814;2022-10-16T06:03:38;13.40;98.20
4374;DHT22;2201;51.100;6.814;2022-10-16T06:06:17;13.40;98.20
4374;DHT22;2201;51.100;6.814;2022-10-16T06:08:46;13.40;98.20
4374;DHT22;2201;51.100;6.814;2022-10-16T06:11:16;13.40;98.20
4374;DHT22;2201;51.100;6.814;2022-10-16T06:13:44;13.40;98.20
4374;DHT22;2201;51.100;6.814;2022-10-16T06:16:12;13.50;98.20
4374;DHT22;2201;51.100;6.814;2022-10-16T06:18:41;13.50;98.20
4374;DHT22;2201;51.100;6.814;2022-10-16T06:21:11;13.50;98.20
4374;DHT22;2201;51.100;6.814;2022-10-16T06:23:39;13.60;98.20
4374;DHT22;2201;51.100;6.814;2022-10-16T06:26:08;13.60;98.20
4374;DHT22;2201;51.100;6.814;2022-10-16T06:28:36;13.60;98.20
4374;DHT22;2201;51.100;6.814;2022-10-16T06:31:05;13.60;98.20
4374;DHT22;2201;51.100;6.814;2022-10-16T06:33:32;13.70;98.20
4374;DHT22;2201;51.100;6.814;2022-10-16T06:36:09;13.70;98.20
4374;DHT22;2201;51.100;6.814;2022-10-16T06:38:48;13.70;98.20
4374;DHT22;2201;51.100;6.814;2022-10-16T06:41:23;13.70;98.20
4374;DHT22;2201;51.100;6.814;2022-10-16T06:44:05;13.70;98.20
4374;DHT22;2201;51.100;6.814;2022-10-16T06:47:00;13.80;98.20
4374;DHT22;2201;51.100;6.814;2022-10-16T06:49:27;13.80;98.20
4374;DHT22;2201;51.100;6.814;2022-10-16T06:51:56;13.80;98.20
4374;DHT22;2201;51.100;6.814;2022-10-16T06:54:23;13.90;98.20
4374;DHT22;2201;51.100;6.814;2022-10-16T06:56:51;14.00;98.20
4374;DHT22;2201;51.100;6.814;2022-10-16T06:59:20;14.10;98.20
4374;DHT22;2201;51.100;6.814;2022-10-16T07:01:47;14.20;98.20
4374;DHT22;2201;51.100;6.814;2022-10-16T07:04:15;14.30;98.20
4374;DHT22;2201;51.100;6.814;2022-10-16T07:06:42;14.40;98.20
4374;DHT22;2201;51.100;6.814;2022-10-16T07:09:11;14.40;98.20
4374;DHT22;2201;51.100;6.814;2022-10-16T07:11:39;14.50;98.20
4374;DHT22;2201;51.100;6.814;2022-10-16T07:14:14;14.50;98.20
4374;DHT22;2201;51.100;6.814;2022-10-16T07:16:42;14.60;98.20
4374;DHT22;2201;51.100;6.814;2022-10-16T07:19:09;14.60;98.20
4374;DHT22;2201;51.100;6.814;2022-10-16T07:21:38;14.60;98.20
4374;DHT22;2201;51.100;6.814;2022-10-16T07:24:06;14.60;98.20
4374;DHT22;2201;51.100;6.814;2022-10-16T07:26:36;14.60;98.20
4374;DHT22;2201;51.100;6.814;2022-10-16T07:29:05;14.60;98.20
4374;DHT22;2201;51.100;6.814;2022-10-16T07:31:32;14.70;98.20
4374;DHT22;2201;51.100;6.814;2022-10-16T07:34:00;14.70;98.20
4374;DHT22;2201;51.100;6.814;2022-10-16T07:36:27;14.80;98.20
4374;DHT22;2201;51.100;6.814;2022-10-16T07:38:54;14.90;98.20
4374;DHT22;2201;51.100;6.814;2022-10-16T07:41:21;14.90;98.20
4374;DHT22;2201;51.100;6.814;2022-10-16T07:43:51;14.90;98.20
4374;DHT22;2201;51.100;6.814;2022-10-16T07:46:20;14.90;98.20
4374;DHT22;2201;51.100;6.814;2022-10-16T07:48:48;14.90;98.20
4374;DHT22;2201;51.100;6.814;2022-10-16T07:51:17;14.90;98.20
4374;DHT22;2201;51.100;6.814;2022-10-16T07:53:45;14.90;98.20
4374;DHT22;2201;51.100;6.814;2022-10-16T07:56:13;15.10;98.20
4374;DHT22;2201;51.100;6.814;2022-10-16T07:58:40;15.30;98.20
4374;DHT22;2201;51.100;6.814;2022-10-16T08:01:11;15.50;98.20
4374;DHT22;2201;51.100;6.814;2022-10-16T08:03:40;15.70;98.20
4374;DHT22;2201;51.100;6.814;2022-10-16T08:06:08;15.90;98.20
4374;DHT22;2201;51.100;6.814;2022-10-16T08:08:35;16.10;98.20
4374;DHT22;2201;51.100;6.814;2022-10-16T08:11:02;16.30;98.20
4374;DHT22;2201;51.100;6.814;2022-10-16T08:13:30;16.40;98.20
4374;DHT22;2201;51.100;6.814;2022-10-16T08:15:58;16.50;98.20
4374;DHT22;2201;51.100;6.814;2022-10-16T08:18:26;16.70;98.20
4374;DHT22;2201;51.100;6.814;2022-10-16T08:20:57;16.80;98.20
4374;DHT22;2201;51.100;6.814;2022-10-16T08:23:26;16.90;98.20
4374;DHT22;2201;51.100;6.814;2022-10-16T08:25:53;17.00;98.20
4374;DHT22;2201;51.100;6.814;2022-10-16T08:28:21;17.10;98.20
4374;DHT22;2201;51.100;6.814;2022-10-16T08:30:49;17.20;98.20
4374;DHT22;2201;51.100;6.814;2022-10-16T08:33:16;17.30;98.20
4374;DHT22;2201;51.100;6.814;2022-10-16T08:35:50;17.40;98.20
4374;DHT22;2201;51.100;6.814;2022-10-16T08:38:18;17.50;98.20
4374;DHT22;2201;51.100;6.814;2022-10-16T08:40:45;17.60;98.20
4374;DHT22;2201;51.100;6.814;2022-10-16T08:43:26;17.70;98.20
4374;DHT22;2201;51.100;6.814;2022-10-16T08:46:15;17.80;98.20
4374;DHT22;2201;51.100;6.814;2022-10-16T08:48:47;18.00;98.20
4374;DHT22;2201;51.100;6.814;2022-10-16T08:51:20;18.10;98.20
4374;DHT22;2201;51.100;6.814;2022-10-16T08:53:53;18.10;98.20
4374;DHT22;2201;51.100;6.814;2022-10-16T08:56:22;18.30;98.20
4374;DHT22;2201;51.100;6.814;2022-10-16T08:58:50;18.30;98.20
4374;DHT22;2201;51.100;6.814;2022-10-16T09:01:20;18.40;98.20
4374;DHT22;2201;51.100;6.814;2022-10-16T09:06:47;18.70;98.20
4374;DHT22;2201;51.100;6.814;2022-10-16T09:09:36;18.70;98.20
4374;DHT22;2201;51.100;6.814;2022-10-16T09:12:11;18.80;98.20
4374;DHT22;2201;51.100;6.814;2022-10-16T09:14:47;19.00;98.20
4374;DHT22;2201;51.100;6.814;2022-10-16T09:17:28;19.10;98.20
4374;DHT22;2201;51.100;6.814;2022-10-16T09:23:10;19.20;98.20
4374;DHT22;2201;51.100;6.814;2022-10-16T09:25:40;19.40;98.20
4374;DHT22;2201;51.100;6.814;2022-10-16T09:28:08;19.50;98.20
4374;DHT22;2201;51.100;6.814;2022-10-16T09:30:37;19.60;98.20
4374;DHT22;2201;51.100;6.814;2022-10-16T09:33:05;19.80;98.20
4374;DHT22;2201;51.100;6.814;2022-10-16T09:35:37;19.90;98.20
4374;DHT22;2201;51.100;6.814;2022-10-16T09:38:07;20.00;98.20
4374;DHT22;2201;51.100;6.814;2022-10-16T09:40:37;20.10;98.20
4374;DHT22;2201;51.100;6.814;2022-10-16T09:43:22;20.20;98.20
4374;DHT22;2201;51.100;6.814;2022-10-16T09:45:57;20.40;98.20
4374;DHT22;2201;51.100;6.814;2022-10-16T09:48:28;20.50;98.20
4374;DHT22;2201;51.100;6.814;2022-10-16T09:51:00;20.60;98.20
4374;DHT22;2201;51.100;6.814;2022-10-16T09:53:45;20.80;98.20
4374;DHT22;2201;51.100;6.814;2022-10-16T09:56:23;20.90;98.20
4374;DHT22;2201;51.100;6.814;2022-10-16T09:58:51;21.00;98.20
4374;DHT22;2201;51.100;6.814;2022-10-16T10:01:19;21.10;97.80
4374;DHT22;2201;51.100;6.814;2022-10-16T10:03:48;21.20;97.10
4374;DHT22;2201;51.100;6.814;2022-10-16T10:06:24;21.20;96.20
4374;DHT22;2201;51.100;6.814;2022-10-16T10:08:58;21.30;96.30
4374;DHT22;2201;51.100;6.814;2022-10-16T10:11:50;21.40;96.50
4374;DHT22;2201;51.100;6.814;2022-10-16T10:14:20;21.60;96.60
4374;DHT22;2201;51.100;6.814;2022-10-16T10:16:49;21.70;96.10
4374;DHT22;2201;51.100;6.814;2022-10-16T10:19:18;21.80;96.30
4374;DHT22;2201;51.100;6.814;2022-10-16T10:21:46;22.00;95.00
4374;DHT22;2201;51.100;6.814;2022-10-16T10:24:17;22.20;93.80
4374;DHT22;2201;51.100;6.814;2022-10-16T10:26:53;22.30;93.30
4374;DHT22;2201;51.100;6.814;2022-10-16T10:29:32;22.30;93.10
4374;DHT22;2201;51.100;6.814;2022-10-16T10:32:11;22.10;93.00
4374;DHT22;2201;51.100;6.814;2022-10-16T10:34:56;22.10;93.60
4374;DHT22;2201;51.100;6.814;2022-10-16T10:37:39;22.00;94.40
4374;DHT22;2201;51.100;6.814;2022-10-16T10:40:22;21.90;94.50
4374;DHT22;2201;51.100;6.814;2022-10-16T10:42:55;21.90;95.20
4374;DHT22;2201;51.100;6.814;2022-10-16T10:45:27;21.80;94.80
4374;DHT22;2201;51.100;6.814;2022-10-16T10:48:14;21.80;93.60
4374;DHT22;2201;51.100;6.814;2022-10-16T10:50:49;21.60;95.00
4374;DHT22;2201;51.100;6.814;2022-10-16T10:53:28;21.60;95.80
4374;DHT22;2201;51.100;6.814;2022-10-16T10:56:09;21.60;94.70
4374;DHT22;2201;51.100;6.814;2022-10-16T10:59:08;21.60;95.30
4374;DHT22;2201;51.100;6.814;2022-10-16T11:01:48;21.60;95.60
4374;DHT22;2201;51.100;6.814;2022-10-16T11:07:32;21.70;96.20
4374;DHT22;2201;51.100;6.814;2022-10-16T11:10:04;21.80;95.10
4374;DHT22;2201;51.100;6.814;2022-10-16T11:12:39;21.90;95.60
4374;DHT22;2201;51.100;6.814;2022-10-16T11:15:14;22.00;94.50
4374;DHT22;2201;51.100;6.814;2022-10-16T11:17:46;21.90;94.50
4374;DHT22;2201;51.100;6.814;2022-10-16T11:20:19;21.90;95.10
4374;DHT22;2201;51.100;6.814;2022-10-16T11:22:51;21.90;94.50
4374;DHT22;2201;51.100;6.814;2022-10-16T11:25:25;22.00;94.60
4374;DHT22;2201;51.100;6.814;2022-10-16T11:28:00;22.00;94.90
4374;DHT22;2201;51.100;6.814;2022-10-16T11:30:32;22.10;94.70
4374;DHT22;2201;51.100;6.814;2022-10-16T11:33:20;22.20;93.80
4374;DHT22;2201;51.100;6.814;2022-10-16T11:35:53;22.40;92.70
4374;DHT22;2201;51.100;6.814;2022-10-16T11:38:28;22.50;92.00
4374;DHT22;2201;51.100;6.814;2022-10-16T11:41:00;22.60;93.00
4374;DHT22;2201;51.100;6.814;2022-10-16T11:43:34;22.60;92.00
4374;DHT22;2201;51.100;6.814;2022-10-16T11:46:09;22.60;93.10
4374;DHT22;2201;51.100;6.814;2022-10-16T11:48:42;22.70;92.50
4374;DHT22;2201;51.100;6.814;2022-10-16T11:51:16;22.80;91.90
4374;DHT22;2201;51.100;6.814;2022-10-16T11:53:49;23.00;92.20
4374;DHT22;2201;51.100;6.814;2022-10-16T11:56:21;23.20;90.40
4374;DHT22;2201;51.100;6.814;2022-10-16T11:58:56;23.40;90.40
4374;DHT22;2201;51.100;6.814;2022-10-16T12:01:30;23.40;88.90
4374;DHT22;2201;51.100;6.814;2022-10-16T12:04:16;23.20;87.90
4374;DHT22;2201;51.100;6.814;2022-10-16T12:06:50;23.20;90.10
4374;DHT22;2201;51.100;6.814;2022-10-16T12:09:24;23.30;89.80
4374;DHT22;2201;51.100;6.814;2022-10-16T12:11:52;23.50;90.40
4374;DHT22;2201;51.100;6.814;2022-10-16T12:14:40;23.50;88.90
4374;DHT22;2201;51.100;6.814;2022-10-16T12:17:34;23.40;88.50
4374;DHT22;2201;51.100;6.814;2022-10-16T12:20:19;23.40;88.00
4374;DHT22;2201;51.100;6.814;2022-10-16T12:22:56;23.40;87.40
4374;DHT22;2201;51.100;6.814;2022-10-16T12:25:32;23.40;89.40
4374;DHT22;2201;51.100;6.814;2022-10-16T12:28:03;23.40;88.80
4374;DHT22;2201;51.100;6.814;2022-10-16T12:30:35;23.50;88.50
4374;DHT22;2201;51.100;6.814;2022-10-16T12:33:21;23.50;89.00
4374;DHT22;2201;51.100;6.814;2022-10-16T12:36:27;23.60;87.40
4374;DHT22;2201;51.100;6.814;2022-10-16T12:39:21;23.40;87.20
4374;DHT22;2201;51.100;6.814;2022-10-16T12:42:19;23.40;86.40
4374;DHT22;2201;51.100;6.814;2022-10-16T12:44:54;23.60;87.70
4374;DHT22;2201;51.100;6.814;2022-10-16T12:47:49;23.70;88.20
4374;DHT22;2201;51.100;6.814;2022-10-16T12:50:28;23.70;85.90
4374;DHT22;2201;51.100;6.814;2022-10-16T12:53:03;23.50;86.30
4374;DHT22;2201;51.100;6.814;2022-10-16T12:55:43;23.40;87.80
4374;DHT22;2201;51.100;6.814;2022-10-16T12:58:28;23.30;88.20
4374;DHT22;2201;51.100;6.814;2022-10-16T13:01:07;23.20;89.60
4374;DHT22;2201;51.100;6.814;2022-10-16T13:03:58;23.20;89.20
4374;DHT22;2201;51.100;6.814;2022-10-16T16:36:32;19.10;98.20
4374;DHT22;2201;51.100;6.814;2022-10-16T16:39:01;19.10;98.20
4374;DHT22;2201;51.100;6.814;2022-10-16T16:41:34;19.10;98.20
4374;DHT22;2201;51.100;6.814;2022-10-16T16:44:07;19.00;98.20
4374;DHT22;2201;51.100;6.814;2022-10-16T16:49:35;18.90;98.20
4374;DHT22;2201;51.100;6.814;2022-10-16T16:52:25;18.90;98.20
4374;DHT22;2201;51.100;6.814;2022-10-16T16:55:11;18.90;98.20
4374;DHT22;2201;51.100;6.814;2022-10-16T16:57:55;18.80;98.20
4374;DHT22;2201;51.100;6.814;2022-10-16T17:00:36;18.80;98.20
4374;DHT22;2201;51.100;6.814;2022-10-16T17:03:07;18.80;98.20
4374;DHT22;2201;51.100;6.814;2022-10-16T17:05:39;18.70;98.20
4374;DHT22;2201;51.100;6.814;2022-10-16T17:08:08;18.70;98.20
4374;DHT22;2201;51.100;6.814;2022-10-16T17:10:43;18.70;98.20
4374;DHT22;2201;51.100;6.814;2022-10-16T17:13:12;18.70;98.20
4374;DHT22;2201;51.100;6.814;2022-10-16T17:15:46;18.70;98.20
4374;DHT22;2201;51.100;6.814;2022-10-16T17:18:20;18.60;98.20
4374;DHT22;2201;51.100;6.814;2022-10-16T17:20:49;18.60;98.20
4374;DHT22;2201;51.100;6.814;2022-10-16T17:26:03;18.60;98.20
4374;DHT22;2201;51.100;6.814;2022-10-16T17:28:30;18.60;98.20
4374;DHT22;2201;51.100;6.814;2022-10-16T17:31:07;18.70;98.20
4374;DHT22;2201;51.100;6.814;2022-10-16T17:33:34;18.70;98.20
4374;DHT22;2201;51.100;6.814;2022-10-16T17:38:23;18.70;98.20
4374;DHT22;2201;51.100;6.814;2022-10-16T17:39:17;18.80;98.20
4374;DHT22;2201;51.100;6.814;2022-10-16T17:41:46;18.80;98.20
4374;DHT22;2201;51.100;6.814;2022-10-16T17:44:14;18.80;98.20
4374;DHT22;2201;51.100;6.814;2022-10-16T17:46:45;18.80;98.20
4374;DHT22;2201;51.100;6.814;2022-10-16T17:49:14;18.80;98.20
4374;DHT22;2201;51.100;6.814;2022-10-16T17:51:42;18.80;98.20
4374;DHT22;2201;51.100;6.814;2022-10-16T17:54:10;18.70;98.20
4374;DHT22;2201;51.100;6.814;2022-10-16T17:56:39;18.80;98.20
4374;DHT22;2201;51.100;6.814;2022-10-16T17:59:09;18.80;98.20
4374;DHT22;2201;51.100;6.814;2022-10-16T18:01:38;18.80;98.20
4374;DHT22;2201;51.100;6.814;2022-10-16T18:04:07;18.80;98.20
4374;DHT22;2201;51.100;6.814;2022-10-16T18:06:35;18.80;98.20
4374;DHT22;2201;51.100;6.814;2022-10-16T18:09:04;18.80;98.20
4374;DHT22;2201;51.100;6.814;2022-10-16T18:11:31;18.70;98.20
4374;DHT22;2201;51.100;6.814;2022-10-16T18:13:58;18.70;98.20
4374;DHT22;2201;51.100;6.814;2022-10-16T18:16:35;18.70;98.20
4374;DHT22;2201;51.100;6.814;2022-10-16T18:19:05;18.70;98.20
4374;DHT22;2201;51.100;6.814;2022-10-16T18:21:32;18.70;98.20
4374;DHT22;2201;51.100;6.814;2022-10-16T18:23:59;18.70;98.20
4374;DHT22;2201;51.100;6.814;2022-10-16T18:26:26;18.60;98.20
4374;DHT22;2201;51.100;6.814;2022-10-16T18:28:54;18.60;98.20
4374;DHT22;2201;51.100;6.814;2022-10-16T18:31:23;18.60;98.20
4374;DHT22;2201;51.100;6.814;2022-10-16T18:33:54;18.60;98.20
4374;DHT22;2201;51.100;6.814;2022-10-16T18:36:22;18.60;98.20
4374;DHT22;2201;51.100;6.814;2022-10-16T18:38:50;18.60;98.20
4374;DHT22;2201;51.100;6.814;2022-10-16T18:41:21;18.60;98.20
4374;DHT22;2201;51.100;6.814;2022-10-16T18:43:48;18.60;98.20
4374;DHT22;2201;51.100;6.814;2022-10-16T18:46:16;18.50;98.20
4374;DHT22;2201;51.100;6.814;2022-10-16T18:48:44;18.60;98.20
4374;DHT22;2201;51.100;6.814;2022-10-16T18:51:15;18.60;98.20
4374;DHT22;2201;51.100;6.814;2022-10-16T18:53:44;18.60;98.20
4374;DHT22;2201;51.100;6.814;2022-10-16T18:56:12;18.60;98.20
4374;DHT22;2201;51.100;6.814;2022-10-16T18:58:44;18.60;98.20
4374;DHT22;2201;51.100;6.814;2022-10-16T19:01:16;18.60;98.20
4374;DHT22;2201;51.100;6.814;2022-10-16T19:03:45;18.60;98.20
4374;DHT22;2201;51.100;6.814;2022-10-16T19:09:30;18.60;98.20
4374;DHT22;2201;51.100;6.814;2022-10-16T19:11:57;18.60;98.20
4374;DHT22;2201;51.100;6.814;2022-10-16T19:14:24;18.60;98.20
4374;DHT22;2201;51.100;6.814;2022-10-16T19:16:53;18.60;98.20
4374;DHT22;2201;51.100;6.814;2022-10-16T19:19:20;18.60;98.20
4374;DHT22;2201;51.100;6.814;2022-10-16T19:21:48;18.60;98.20
4374;DHT22;2201;51.100;6.814;2022-10-16T19:24:21;18.60;98.20
4374;DHT22;2201;51.100;6.814;2022-10-16T19:26:49;18.60;98.20
4374;DHT22;2201;51.100;6.814;2022-10-16T19:29:16;18.60;98.20
4374;DHT22;2201;51.100;6.814;2022-10-16T19:31:43;18.60;98.20
4374;DHT22;2201;51.100;6.814;2022-10-16T19:34:11;18.60;98.20
4374;DHT22;2201;51.100;6.814;2022-10-16T19:39:59;18.50;98.20
4374;DHT22;2201;51.100;6.814;2022-10-16T19:42:39;18.50;98.20
4374;DHT22;2201;51.100;6.814;2022-10-16T19:45:33;18.50;98.20
4374;DHT22;2201;51.100;6.814;2022-10-16T19:48:01;18.50;98.20
4374;DHT22;2201;51.100;6.814;2022-10-16T19:50:29;18.50;98.20
4374;DHT22;2201;51.100;6.814;2022-10-16T19:52:57;18.50;98.20
4374;DHT22;2201;51.100;6.814;2022-10-16T19:55:45;18.40;98.20
4374;DHT22;2201;51.100;6.814;2022-10-16T20:01:39;18.40;98.20
4374;DHT22;2201;51.100;6.814;2022-10-16T20:04:38;18.30;98.20
4374;DHT22;2201;51.100;6.814;2022-10-16T20:07:10;18.30;98.20
4374;DHT22;2201;51.100;6.814;2022-10-16T20:09:44;18.30;98.20
4374;DHT22;2201;51.100;6.814;2022-10-16T20:12:11;18.30;98.20
4374;DHT22;2201;51.100;6.814;2022-10-16T20:14:39;18.20;98.20
4374;DHT22;2201;51.100;6.814;2022-10-16T20:17:22;18.20;98.20
4374;DHT22;2201;51.100;6.814;2022-10-16T20:20:20;18.10;98.20
4374;DHT22;2201;51.100;6.814;2022-10-16T20:25:15;18.10;98.20
4374;DHT22;2201;51.100;6.814;2022-10-16T20:27:42;18.10;98.20
4374;DHT22;2201;51.100;6.814;2022-10-16T20:30:09;18.10;98.20
4374;DHT22;2201;51.100;6.814;2022-10-16T20:32:38;18.10;98.20
4374;DHT22;2201;51.100;6.814;2022-10-16T20:35:07;18.00;98.20
4374;DHT22;2201;51.100;6.814;2022-10-16T20:37:41;18.00;98.20